sensor_id;sensor_type;location;lat;lon;timestamp;P1;durP1;ratioP1;P2;durP2;ratioP2
33076;SDS011;38790;51.964;5.924;2022-10-23T00:00:39;25.33;;;13.95;;
33076;SDS011;38790;51.964;5.924;2022-10-23T00:03:05;22.63;;;13.00;;
33076;SDS011;38790;51.964;5.924;2022-10-23T00:05:31;19.80;;;13.68;;
33076;SDS011;38790;51.964;5.924;2022-10-23T00:07:58;26.65;;;14.68;;
33076;SDS011;38790;51.964;5.924;2022-10-23T00:10:26;30.15;;;14.93;;
33076;SDS011;38790;51.964;5.924;2022-10-23T00:12:53;23.23;;;14.23;;
33076;SDS011;38790;51.964;5.924;2022-10-23T00:15:20;29.02;;;13.77;;
33076;SDS011;38790;51.964;5.924;2022-10-23T00:17:47;24.85;;;14.48;;
33076;SDS011;38790;51.964;5.924;2022-10-23T00:20:14;25.65;;;13.73;;
33076;SDS011;38790;51.964;5.924;2022-10-23T00:22:41;25.92;;;14.52;;
33076;SDS011;38790;51.964;5.924;2022-10-23T00:25:08;32.67;;;14.15;;
33076;SDS011;38790;51.964;5.924;2022-10-23T00:27:35;24.92;;;14.30;;
33076;SDS011;38790;51.964;5.924;2022-10-23T00:30:02;28.05;;;14.02;;
33076;SDS011;38790;51.964;5.924;2022-10-23T00:32:30;21.92;;;14.32;;
33076;SDS011;38790;51.964;5.924;2022-10-23T00:34:56;21.70;;;13.93;;
33076;SDS011;38790;51.964;5.924;2022-10-23T00:37:22;31.90;;;14.63;;
33076;SDS011;38790;51.964;5.924;2022-10-23T00:39:48;33.00;;;15.07;;
33076;SDS011;38790;51.964;5.924;2022-10-23T00:42:18;31.25;;;13.80;;
33076;SDS011;38790;51.964;5.924;2022-10-23T00:47:12;18.50;;;12.63;;
33076;SDS011;38790;51.964;5.924;2022-10-23T00:49:38;20.02;;;13.43;;
33076;SDS011;38790;51.964;5.924;2022-10-23T00:52:06;27.40;;;13.00;;
33076;SDS011;38790;51.964;5.924;2022-10-23T00:54:37;27.85;;;14.38;;
33076;SDS011;38790;51.964;5.924;2022-10-23T00:57:07;22.98;;;13.80;;
33076;SDS011;38790;51.964;5.924;2022-10-23T00:59:37;25.13;;;13.80;;
33076;SDS011;38790;51.964;5.924;2022-10-23T01:02:04;27.67;;;14.00;;
33076;SDS011;38790;51.964;5.924;2022-10-23T01:04:30;29.98;;;13.40;;
33076;SDS011;38790;51.964;5.924;2022-10-23T01:18:02;23.08;;;13.95;;
33076;SDS011;38790;51.964;5.924;2022-10-23T01:23:35;30.30;;;13.75;;
33076;SDS011;38790;51.964;5.924;2022-10-23T01:29:03;23.20;;;14.20;;
33076;SDS011;38790;51.964;5.924;2022-10-23T01:31:35;30.58;;;16.45;;
33076;SDS011;38790;51.964;5.924;2022-10-23T01:34:31;26.20;;;15.35;;
33076;SDS011;38790;51.964;5.924;2022-10-23T01:37:27;23.35;;;15.30;;
33076;SDS011;38790;51.964;5.924;2022-10-23T01:40:00;24.50;;;15.30;;
33076;SDS011;38790;51.964;5.924;2022-10-23T01:42:32;21.17;;;14.25;;
33076;SDS011;38790;51.964;5.924;2022-10-23T01:45:07;24.98;;;13.10;;
33076;SDS011;38790;51.964;5.924;2022-10-23T01:47:40;25.58;;;15.90;;
33076;SDS011;38790;51.964;5.924;2022-10-23T01:50:08;44.35;;;15.57;;
33076;SDS011;38790;51.964;5.924;2022-10-23T01:52:37;34.83;;;16.33;;
33076;SDS011;38790;51.964;5.924;2022-10-23T01:55:03;35.08;;;16.25;;
33076;SDS011;38790;51.964;5.924;2022-10-23T01:57:31;35.40;;;17.85;;
33076;SDS011;38790;51.964;5.924;2022-10-23T02:00:04;27.90;;;15.07;;
33076;SDS011;38790;51.964;5.924;2022-10-23T02:02:33;25.87;;;15.30;;
33076;SDS011;38790;51.964;5.924;2022-10-23T02:07:31;35.85;;;15.63;;
33076;SDS011;38790;51.964;5.924;2022-10-23T02:09:57;24.60;;;14.32;;
33076;SDS011;38790;51.964;5.924;2022-10-23T02:12:26;25.83;;;15.50;;
33076;SDS011;38790;51.964;5.924;2022-10-23T02:15:08;37.60;;;15.63;;
33076;SDS011;38790;51.964;5.924;2022-10-23T02:17:56;23.02;;;13.95;;
33076;SDS011;38790;51.964;5.924;2022-10-23T02:23:16;23.45;;;13.27;;
33076;SDS011;38790;51.964;5.924;2022-10-23T02:28:22;24.60;;;14.07;;
33076;SDS011;38790;51.964;5.924;2022-10-23T02:30:52;22.42;;;14.13;;
33076;SDS011;38790;51.964;5.924;2022-10-23T02:33:21;22.55;;;13.98;;
33076;SDS011;38790;51.964;5.924;2022-10-23T02:35:49;25.35;;;14.88;;
33076;SDS011;38790;51.964;5.924;2022-10-23T02:41:07;30.02;;;15.05;;
33076;SDS011;38790;51.964;5.924;2022-10-23T02:49:31;22.00;;;13.63;;
33076;SDS011;38790;51.964;5.924;2022-10-23T02:57:38;24.98;;;14.23;;
33076;SDS011;38790;51.964;5.924;2022-10-23T03:00:10;28.85;;;15.50;;
33076;SDS011;38790;51.964;5.924;2022-10-23T03:03:05;25.45;;;14.27;;
33076;SDS011;38790;51.964;5.924;2022-10-23T03:05:35;25.17;;;13.65;;
33076;SDS011;38790;51.964;5.924;2022-10-23T03:08:05;24.48;;;13.90;;
33076;SDS011;38790;51.964;5.924;2022-10-23T03:10:34;21.38;;;13.15;;
33076;SDS011;38790;51.964;5.924;2022-10-23T03:13:00;33.60;;;14.20;;
33076;SDS011;38790;51.964;5.924;2022-10-23T03:15:27;19.70;;;14.38;;
33076;SDS011;38790;51.964;5.924;2022-10-23T03:17:53;35.75;;;14.68;;
33076;SDS011;38790;51.964;5.924;2022-10-23T03:20:19;25.00;;;14.80;;
33076;SDS011;38790;51.964;5.924;2022-10-23T03:22:45;31.95;;;14.20;;
33076;SDS011;38790;51.964;5.924;2022-10-23T03:25:12;25.23;;;13.43;;
33076;SDS011;38790;51.964;5.924;2022-10-23T03:27:38;25.85;;;13.85;;
33076;SDS011;38790;51.964;5.924;2022-10-23T03:30:04;25.42;;;14.98;;
33076;SDS011;38790;51.964;5.924;2022-10-23T03:32:31;30.83;;;13.98;;
33076;SDS011;38790;51.964;5.924;2022-10-23T03:34:57;26.27;;;14.70;;
33076;SDS011;38790;51.964;5.924;2022-10-23T03:37:23;30.50;;;15.25;;
33076;SDS011;38790;51.964;5.924;2022-10-23T03:39:49;37.33;;;15.93;;
33076;SDS011;38790;51.964;5.924;2022-10-23T03:42:16;26.17;;;14.80;;
33076;SDS011;38790;51.964;5.924;2022-10-23T03:44:42;36.95;;;16.52;;
33076;SDS011;38790;51.964;5.924;2022-10-23T03:47:09;33.17;;;16.15;;
33076;SDS011;38790;51.964;5.924;2022-10-23T03:49:37;27.70;;;15.68;;
33076;SDS011;38790;51.964;5.924;2022-10-23T03:52:04;33.70;;;16.77;;
33076;SDS011;38790;51.964;5.924;2022-10-23T03:54:31;47.15;;;17.92;;
33076;SDS011;38790;51.964;5.924;2022-10-23T03:56:58;47.22;;;17.20;;
33076;SDS011;38790;51.964;5.924;2022-10-23T03:59:24;45.50;;;17.85;;
33076;SDS011;38790;51.964;5.924;2022-10-23T04:01:51;32.42;;;15.35;;
33076;SDS011;38790;51.964;5.924;2022-10-23T04:04:17;27.92;;;14.95;;
33076;SDS011;38790;51.964;5.924;2022-10-23T04:06:43;35.13;;;14.63;;
33076;SDS011;38790;51.964;5.924;2022-10-23T04:09:09;29.77;;;13.50;;
33076;SDS011;38790;51.964;5.924;2022-10-23T04:11:36;25.50;;;13.57;;
33076;SDS011;38790;51.964;5.924;2022-10-23T04:14:02;29.65;;;14.95;;
33076;SDS011;38790;51.964;5.924;2022-10-23T04:16:28;28.83;;;14.25;;
33076;SDS011;38790;51.964;5.924;2022-10-23T04:18:54;31.08;;;13.52;;
33076;SDS011;38790;51.964;5.924;2022-10-23T04:21:20;36.08;;;13.93;;
33076;SDS011;38790;51.964;5.924;2022-10-23T04:23:46;19.83;;;11.98;;
33076;SDS011;38790;51.964;5.924;2022-10-23T04:26:12;24.00;;;13.05;;
33076;SDS011;38790;51.964;5.924;2022-10-23T04:28:39;30.30;;;13.13;;
33076;SDS011;38790;51.964;5.924;2022-10-23T04:31:05;27.67;;;13.48;;
33076;SDS011;38790;51.964;5.924;2022-10-23T04:33:31;26.05;;;13.63;;
33076;SDS011;38790;51.964;5.924;2022-10-23T04:35:57;25.20;;;13.25;;
33076;SDS011;38790;51.964;5.924;2022-10-23T04:38:23;32.17;;;13.20;;
33076;SDS011;38790;51.964;5.924;2022-10-23T04:40:50;28.20;;;13.82;;
33076;SDS011;38790;51.964;5.924;2022-10-23T04:43:16;29.80;;;13.32;;
33076;SDS011;38790;51.964;5.924;2022-10-23T04:45:42;30.95;;;13.68;;
33076;SDS011;38790;51.964;5.924;2022-10-23T04:48:09;28.83;;;13.93;;
33076;SDS011;38790;51.964;5.924;2022-10-23T04:50:35;34.13;;;12.68;;
33076;SDS011;38790;51.964;5.924;2022-10-23T04:53:01;27.13;;;12.00;;
33076;SDS011;38790;51.964;5.924;2022-10-23T04:55:27;26.58;;;12.27;;
33076;SDS011;38790;51.964;5.924;2022-10-23T04:57:53;27.67;;;11.82;;
33076;SDS011;38790;51.964;5.924;2022-10-23T05:00:19;28.38;;;11.65;;
33076;SDS011;38790;51.964;5.924;2022-10-23T05:02:45;22.30;;;11.25;;
33076;SDS011;38790;51.964;5.924;2022-10-23T05:05:11;26.85;;;11.32;;
33076;SDS011;38790;51.964;5.924;2022-10-23T05:07:38;19.58;;;9.98;;
33076;SDS011;38790;51.964;5.924;2022-10-23T05:10:04;28.42;;;11.35;;
33076;SDS011;38790;51.964;5.924;2022-10-23T05:12:31;24.70;;;11.13;;
33076;SDS011;38790;51.964;5.924;2022-10-23T05:14:57;22.60;;;10.75;;
33076;SDS011;38790;51.964;5.924;2022-10-23T05:17:33;29.17;;;11.00;;
33076;SDS011;38790;51.964;5.924;2022-10-23T05:20:03;25.48;;;10.95;;
33076;SDS011;38790;51.964;5.924;2022-10-23T05:22:34;20.00;;;10.63;;
33076;SDS011;38790;51.964;5.924;2022-10-23T05:25:03;16.10;;;9.75;;
33076;SDS011;38790;51.964;5.924;2022-10-23T05:27:29;20.67;;;10.10;;
33076;SDS011;38790;51.964;5.924;2022-10-23T05:29:56;19.98;;;10.07;;
33076;SDS011;38790;51.964;5.924;2022-10-23T05:32:22;24.63;;;10.43;;
33076;SDS011;38790;51.964;5.924;2022-10-23T05:34:50;22.92;;;10.05;;
33076;SDS011;38790;51.964;5.924;2022-10-23T05:37:16;23.25;;;10.10;;
33076;SDS011;38790;51.964;5.924;2022-10-23T05:39:42;25.33;;;10.23;;
33076;SDS011;38790;51.964;5.924;2022-10-23T05:42:12;18.50;;;10.15;;
33076;SDS011;38790;51.964;5.924;2022-10-23T05:44:46;25.50;;;11.07;;
33076;SDS011;38790;51.964;5.924;2022-10-23T05:47:12;28.27;;;10.43;;
33076;SDS011;38790;51.964;5.924;2022-10-23T05:49:38;22.08;;;10.32;;
33076;SDS011;38790;51.964;5.924;2022-10-23T05:52:07;26.38;;;10.27;;
33076;SDS011;38790;51.964;5.924;2022-10-23T05:54:44;25.27;;;9.45;;
33076;SDS011;38790;51.964;5.924;2022-10-23T05:57:11;17.67;;;10.23;;
33076;SDS011;38790;51.964;5.924;2022-10-23T05:59:37;28.25;;;11.32;;
33076;SDS011;38790;51.964;5.924;2022-10-23T06:02:03;21.83;;;10.13;;
33076;SDS011;38790;51.964;5.924;2022-10-23T06:04:29;19.80;;;9.55;;
33076;SDS011;38790;51.964;5.924;2022-10-23T06:06:55;22.90;;;10.90;;
33076;SDS011;38790;51.964;5.924;2022-10-23T06:09:27;24.25;;;12.18;;
33076;SDS011;38790;51.964;5.924;2022-10-23T06:11:56;34.97;;;11.68;;
33076;SDS011;38790;51.964;5.924;2022-10-23T06:14:22;23.10;;;11.00;;
33076;SDS011;38790;51.964;5.924;2022-10-23T06:16:48;18.50;;;10.48;;
33076;SDS011;38790;51.964;5.924;2022-10-23T06:19:14;28.08;;;9.68;;
33076;SDS011;38790;51.964;5.924;2022-10-23T06:21:40;25.05;;;11.10;;
33076;SDS011;38790;51.964;5.924;2022-10-23T06:24:07;28.60;;;10.07;;
33076;SDS011;38790;51.964;5.924;2022-10-23T06:26:34;20.55;;;10.57;;
33076;SDS011;38790;51.964;5.924;2022-10-23T06:29:00;22.05;;;10.80;;
33076;SDS011;38790;51.964;5.924;2022-10-23T06:31:26;29.17;;;10.82;;
33076;SDS011;38790;51.964;5.924;2022-10-23T06:33:53;27.90;;;10.68;;
33076;SDS011;38790;51.964;5.924;2022-10-23T06:36:20;19.70;;;10.60;;
33076;SDS011;38790;51.964;5.924;2022-10-23T06:38:46;21.48;;;11.20;;
33076;SDS011;38790;51.964;5.924;2022-10-23T06:41:17;32.83;;;10.90;;
33076;SDS011;38790;51.964;5.924;2022-10-23T06:43:46;22.88;;;10.43;;
33076;SDS011;38790;51.964;5.924;2022-10-23T06:46:13;23.27;;;10.68;;
33076;SDS011;38790;51.964;5.924;2022-10-23T06:48:42;18.70;;;10.55;;
33076;SDS011;38790;51.964;5.924;2022-10-23T06:51:10;28.05;;;10.57;;
33076;SDS011;38790;51.964;5.924;2022-10-23T06:53:38;22.83;;;9.80;;
33076;SDS011;38790;51.964;5.924;2022-10-23T06:56:05;18.35;;;9.73;;
33076;SDS011;38790;51.964;5.924;2022-10-23T06:58:32;21.70;;;9.77;;
33076;SDS011;38790;51.964;5.924;2022-10-23T07:01:00;17.70;;;9.45;;
33076;SDS011;38790;51.964;5.924;2022-10-23T07:03:28;20.92;;;9.85;;
33076;SDS011;38790;51.964;5.924;2022-10-23T07:05:54;20.48;;;9.38;;
33076;SDS011;38790;51.964;5.924;2022-10-23T07:08:20;19.67;;;9.88;;
33076;SDS011;38790;51.964;5.924;2022-10-23T07:10:46;22.92;;;8.95;;
33076;SDS011;38790;51.964;5.924;2022-10-23T07:13:13;15.10;;;8.10;;
33076;SDS011;38790;51.964;5.924;2022-10-23T07:15:39;18.70;;;9.32;;
33076;SDS011;38790;51.964;5.924;2022-10-23T07:18:06;23.63;;;9.05;;
33076;SDS011;38790;51.964;5.924;2022-10-23T07:20:42;20.92;;;8.05;;
33076;SDS011;38790;51.964;5.924;2022-10-23T07:23:08;24.08;;;10.50;;
33076;SDS011;38790;51.964;5.924;2022-10-23T07:25:36;19.48;;;8.60;;
33076;SDS011;38790;51.964;5.924;2022-10-23T07:28:03;16.98;;;7.95;;
33076;SDS011;38790;51.964;5.924;2022-10-23T07:30:29;12.43;;;7.55;;
33076;SDS011;38790;51.964;5.924;2022-10-23T07:32:56;20.50;;;7.82;;
33076;SDS011;38790;51.964;5.924;2022-10-23T07:35:22;22.23;;;8.98;;
33076;SDS011;38790;51.964;5.924;2022-10-23T07:37:48;12.75;;;7.97;;
33076;SDS011;38790;51.964;5.924;2022-10-23T07:40:14;16.40;;;7.32;;
33076;SDS011;38790;51.964;5.924;2022-10-23T07:42:41;14.95;;;7.75;;
33076;SDS011;38790;51.964;5.924;2022-10-23T07:45:07;17.77;;;7.38;;
33076;SDS011;38790;51.964;5.924;2022-10-23T07:47:34;15.63;;;7.75;;
33076;SDS011;38790;51.964;5.924;2022-10-23T07:50:00;12.77;;;7.65;;
33076;SDS011;38790;51.964;5.924;2022-10-23T07:52:26;15.45;;;7.07;;
33076;SDS011;38790;51.964;5.924;2022-10-23T07:54:52;20.25;;;7.75;;
33076;SDS011;38790;51.964;5.924;2022-10-23T07:57:19;18.65;;;7.32;;
33076;SDS011;38790;51.964;5.924;2022-10-23T07:59:45;16.42;;;7.93;;
33076;SDS011;38790;51.964;5.924;2022-10-23T08:02:12;19.33;;;7.65;;
33076;SDS011;38790;51.964;5.924;2022-10-23T08:04:39;17.77;;;8.68;;
33076;SDS011;38790;51.964;5.924;2022-10-23T08:07:05;20.75;;;6.63;;
33076;SDS011;38790;51.964;5.924;2022-10-23T08:09:31;13.65;;;6.93;;
33076;SDS011;38790;51.964;5.924;2022-10-23T08:11:59;24.00;;;8.00;;
33076;SDS011;38790;51.964;5.924;2022-10-23T08:14:26;11.90;;;6.55;;
33076;SDS011;38790;51.964;5.924;2022-10-23T08:16:52;25.15;;;7.57;;
33076;SDS011;38790;51.964;5.924;2022-10-23T08:19:18;13.00;;;6.85;;
33076;SDS011;38790;51.964;5.924;2022-10-23T08:21:44;15.32;;;6.72;;
33076;SDS011;38790;51.964;5.924;2022-10-23T08:24:10;17.40;;;7.80;;
33076;SDS011;38790;51.964;5.924;2022-10-23T08:26:39;16.90;;;6.88;;
33076;SDS011;38790;51.964;5.924;2022-10-23T08:29:05;15.32;;;6.82;;
33076;SDS011;38790;51.964;5.924;2022-10-23T08:31:31;15.73;;;6.55;;
33076;SDS011;38790;51.964;5.924;2022-10-23T08:33:57;17.33;;;6.95;;
33076;SDS011;38790;51.964;5.924;2022-10-23T08:36:24;19.92;;;6.30;;
33076;SDS011;38790;51.964;5.924;2022-10-23T08:38:53;10.73;;;6.40;;
33076;SDS011;38790;51.964;5.924;2022-10-23T08:41:28;14.25;;;6.13;;
33076;SDS011;38790;51.964;5.924;2022-10-23T08:46:52;19.27;;;6.70;;
33076;SDS011;38790;51.964;5.924;2022-10-23T08:49:50;24.98;;;7.03;;
33076;SDS011;38790;51.964;5.924;2022-10-23T08:57:35;24.65;;;5.95;;
33076;SDS011;38790;51.964;5.924;2022-10-23T09:00:11;16.73;;;6.13;;
33076;SDS011;38790;51.964;5.924;2022-10-23T09:02:44;15.55;;;5.80;;
33076;SDS011;38790;51.964;5.924;2022-10-23T09:05:31;16.08;;;5.78;;
33076;SDS011;38790;51.964;5.924;2022-10-23T09:11:06;11.68;;;5.45;;
33076;SDS011;38790;51.964;5.924;2022-10-23T09:16:39;17.45;;;6.47;;
33076;SDS011;38790;51.964;5.924;2022-10-23T09:19:18;17.00;;;5.97;;
33076;SDS011;38790;51.964;5.924;2022-10-23T09:21:49;18.92;;;5.45;;
33076;SDS011;38790;51.964;5.924;2022-10-23T09:24:16;11.75;;;5.60;;
33076;SDS011;38790;51.964;5.924;2022-10-23T09:26:44;11.63;;;5.95;;
33076;SDS011;38790;51.964;5.924;2022-10-23T09:31:48;15.27;;;5.72;;
33076;SDS011;38790;51.964;5.924;2022-10-23T09:34:20;12.50;;;5.47;;
33076;SDS011;38790;51.964;5.924;2022-10-23T09:36:53;21.83;;;6.03;;
33076;SDS011;38790;51.964;5.924;2022-10-23T09:39:21;14.40;;;5.55;;
33076;SDS011;38790;51.964;5.924;2022-10-23T09:41:50;17.08;;;6.32;;
33076;SDS011;38790;51.964;5.924;2022-10-23T09:46:48;15.45;;;5.43;;
33076;SDS011;38790;51.964;5.924;2022-10-23T09:49:25;15.95;;;5.35;;
33076;SDS011;38790;51.964;5.924;2022-10-23T09:54:28;18.40;;;5.63;;
33076;SDS011;38790;51.964;5.924;2022-10-23T09:57:04;17.13;;;5.65;;
33076;SDS011;38790;51.964;5.924;2022-10-23T10:02:18;16.15;;;5.85;;
33076;SDS011;38790;51.964;5.924;2022-10-23T10:04:51;20.85;;;5.80;;
33076;SDS011;38790;51.964;5.924;2022-10-23T10:07:21;18.40;;;5.35;;
33076;SDS011;38790;51.964;5.924;2022-10-23T10:09:49;16.48;;;6.22;;
33076;SDS011;38790;51.964;5.924;2022-10-23T10:15:19;17.85;;;5.75;;
33076;SDS011;38790;51.964;5.924;2022-10-23T10:23:06;13.35;;;5.40;;
33076;SDS011;38790;51.964;5.924;2022-10-23T10:37:04;11.15;;;4.88;;
33076;SDS011;38790;51.964;5.924;2022-10-23T10:39:59;13.02;;;5.22;;
33076;SDS011;38790;51.964;5.924;2022-10-23T10:42:54;13.93;;;5.50;;
33076;SDS011;38790;51.964;5.924;2022-10-23T10:50:51;15.98;;;5.05;;
33076;SDS011;38790;51.964;5.924;2022-10-23T10:56:26;15.60;;;4.70;;
33076;SDS011;38790;51.964;5.924;2022-10-23T10:59:00;17.00;;;4.75;;
33076;SDS011;38790;51.964;5.924;2022-10-23T11:01:34;15.07;;;4.68;;
33076;SDS011;38790;51.964;5.924;2022-10-23T11:04:13;12.88;;;4.60;;
33076;SDS011;38790;51.964;5.924;2022-10-23T11:06:51;8.30;;;4.72;;
33076;SDS011;38790;51.964;5.924;2022-10-23T11:09:23;14.25;;;4.63;;
33076;SDS011;38790;51.964;5.924;2022-10-23T11:11:52;9.38;;;3.97;;
33076;SDS011;38790;51.964;5.924;2022-10-23T11:14:22;13.80;;;4.47;;
33076;SDS011;38790;51.964;5.924;2022-10-23T11:17:37;9.38;;;4.18;;
33076;SDS011;38790;51.964;5.924;2022-10-23T11:19:48;12.10;;;4.50;;
33076;SDS011;38790;51.964;5.924;2022-10-23T11:31:03;15.15;;;4.00;;
33076;SDS011;38790;51.964;5.924;2022-10-23T11:33:52;9.50;;;3.83;;
33076;SDS011;38790;51.964;5.924;2022-10-23T11:39:30;11.80;;;4.50;;
33076;SDS011;38790;51.964;5.924;2022-10-23T11:44:48;11.18;;;4.20;;
33076;SDS011;38790;51.964;5.924;2022-10-23T11:49:50;11.07;;;4.18;;
33076;SDS011;38790;51.964;5.924;2022-10-23T11:52:28;11.27;;;4.40;;
33076;SDS011;38790;51.964;5.924;2022-10-23T11:55:01;7.90;;;4.50;;
33076;SDS011;38790;51.964;5.924;2022-10-23T11:57:27;10.18;;;3.78;;
33076;SDS011;38790;51.964;5.924;2022-10-23T11:59:54;13.65;;;4.18;;
33076;SDS011;38790;51.964;5.924;2022-10-23T12:02:24;11.55;;;4.78;;
33076;SDS011;38790;51.964;5.924;2022-10-23T12:04:57;17.13;;;4.82;;
33076;SDS011;38790;51.964;5.924;2022-10-23T12:07:29;16.65;;;4.28;;
33076;SDS011;38790;51.964;5.924;2022-10-23T12:09:59;7.28;;;3.63;;
33076;SDS011;38790;51.964;5.924;2022-10-23T12:12:30;16.27;;;4.90;;
33076;SDS011;38790;51.964;5.924;2022-10-23T12:15:06;15.07;;;4.03;;
33076;SDS011;38790;51.964;5.924;2022-10-23T12:17:38;9.35;;;4.20;;
33076;SDS011;38790;51.964;5.924;2022-10-23T12:23:01;14.70;;;4.75;;
33076;SDS011;38790;51.964;5.924;2022-10-23T12:36:37;10.15;;;4.30;;
33076;SDS011;38790;51.964;5.924;2022-10-23T12:39:32;9.68;;;4.35;;
33076;SDS011;38790;51.964;5.924;2022-10-23T12:42:14;11.95;;;4.95;;
33076;SDS011;38790;51.964;5.924;2022-10-23T12:44:56;8.38;;;3.95;;
33076;SDS011;38790;51.964;5.924;2022-10-23T12:47:26;11.73;;;4.55;;
33076;SDS011;38790;51.964;5.924;2022-10-23T12:49:54;22.23;;;5.13;;
33076;SDS011;38790;51.964;5.924;2022-10-23T12:52:20;9.25;;;3.88;;
33076;SDS011;38790;51.964;5.924;2022-10-23T12:54:50;12.50;;;3.97;;
33076;SDS011;38790;51.964;5.924;2022-10-23T12:59:46;10.25;;;3.97;;
33076;SDS011;38790;51.964;5.924;2022-10-23T13:04:50;14.70;;;4.78;;
33076;SDS011;38790;51.964;5.924;2022-10-23T13:07:18;9.93;;;3.92;;
33076;SDS011;38790;51.964;5.924;2022-10-23T13:09:48;9.45;;;4.20;;
33076;SDS011;38790;51.964;5.924;2022-10-23T13:12:28;13.00;;;4.45;;
33076;SDS011;38790;51.964;5.924;2022-10-23T13:17:42;11.23;;;4.05;;
33076;SDS011;38790;51.964;5.924;2022-10-23T13:20:19;14.13;;;4.85;;
33076;SDS011;38790;51.964;5.924;2022-10-23T13:25:37;8.45;;;4.10;;
33076;SDS011;38790;51.964;5.924;2022-10-23T13:30:34;12.02;;;3.30;;
33076;SDS011;38790;51.964;5.924;2022-10-23T13:33:15;16.55;;;3.38;;
33076;SDS011;38790;51.964;5.924;2022-10-23T13:35:53;10.70;;;3.20;;
33076;SDS011;38790;51.964;5.924;2022-10-23T13:38:31;11.57;;;2.83;;
33076;SDS011;38790;51.964;5.924;2022-10-23T13:40:58;13.13;;;3.10;;
33076;SDS011;38790;51.964;5.924;2022-10-23T13:43:26;11.60;;;3.33;;
33076;SDS011;38790;51.964;5.924;2022-10-23T13:45:55;4.68;;;2.63;;
33076;SDS011;38790;51.964;5.924;2022-10-23T13:48:22;11.82;;;2.78;;
33076;SDS011;38790;51.964;5.924;2022-10-23T13:50:49;4.63;;;2.55;;
33076;SDS011;38790;51.964;5.924;2022-10-23T13:53:15;6.90;;;2.38;;
33076;SDS011;38790;51.964;5.924;2022-10-23T13:55:42;4.18;;;2.40;;
33076;SDS011;38790;51.964;5.924;2022-10-23T13:58:11;8.65;;;2.90;;
33076;SDS011;38790;51.964;5.924;2022-10-23T14:00:37;5.85;;;2.70;;
33076;SDS011;38790;51.964;5.924;2022-10-23T14:03:04;11.00;;;2.63;;
33076;SDS011;38790;51.964;5.924;2022-10-23T14:05:30;6.00;;;2.10;;
33076;SDS011;38790;51.964;5.924;2022-10-23T14:07:57;19.35;;;2.97;;
33076;SDS011;38790;51.964;5.924;2022-10-23T14:10:23;5.22;;;3.10;;
33076;SDS011;38790;51.964;5.924;2022-10-23T14:12:49;12.90;;;2.70;;
33076;SDS011;38790;51.964;5.924;2022-10-23T14:15:19;6.95;;;2.88;;
33076;SDS011;38790;51.964;5.924;2022-10-23T14:17:46;10.70;;;3.00;;
33076;SDS011;38790;51.964;5.924;2022-10-23T14:20:12;8.77;;;2.53;;
33076;SDS011;38790;51.964;5.924;2022-10-23T14:22:39;8.38;;;2.60;;
33076;SDS011;38790;51.964;5.924;2022-10-23T14:25:05;9.50;;;2.40;;
33076;SDS011;38790;51.964;5.924;2022-10-23T14:27:31;5.68;;;2.97;;
33076;SDS011;38790;51.964;5.924;2022-10-23T14:29:57;5.22;;;2.42;;
33076;SDS011;38790;51.964;5.924;2022-10-23T14:32:23;6.60;;;2.72;;
33076;SDS011;38790;51.964;5.924;2022-10-23T14:34:50;10.32;;;3.05;;
33076;SDS011;38790;51.964;5.924;2022-10-23T14:37:18;10.63;;;2.83;;
33076;SDS011;38790;51.964;5.924;2022-10-23T14:39:45;17.88;;;3.10;;
33076;SDS011;38790;51.964;5.924;2022-10-23T14:42:12;9.00;;;2.60;;
33076;SDS011;38790;51.964;5.924;2022-10-23T14:44:38;7.93;;;2.65;;
33076;SDS011;38790;51.964;5.924;2022-10-23T14:47:04;5.95;;;2.45;;
33076;SDS011;38790;51.964;5.924;2022-10-23T14:49:30;5.90;;;2.78;;
33076;SDS011;38790;51.964;5.924;2022-10-23T14:51:57;9.48;;;2.75;;
33076;SDS011;38790;51.964;5.924;2022-10-23T14:54:24;8.88;;;2.92;;
33076;SDS011;38790;51.964;5.924;2022-10-23T14:56:50;4.78;;;2.58;;
33076;SDS011;38790;51.964;5.924;2022-10-23T14:59:16;10.85;;;3.25;;
33076;SDS011;38790;51.964;5.924;2022-10-23T15:01:43;11.98;;;2.97;;
33076;SDS011;38790;51.964;5.924;2022-10-23T15:04:10;10.13;;;3.40;;
33076;SDS011;38790;51.964;5.924;2022-10-23T15:06:38;12.23;;;3.38;;
33076;SDS011;38790;51.964;5.924;2022-10-23T15:09:05;9.68;;;2.70;;
33076;SDS011;38790;51.964;5.924;2022-10-23T15:11:32;6.70;;;2.58;;
33076;SDS011;38790;51.964;5.924;2022-10-23T15:13:59;13.57;;;2.75;;
33076;SDS011;38790;51.964;5.924;2022-10-23T15:16:25;9.52;;;2.83;;
33076;SDS011;38790;51.964;5.924;2022-10-23T15:18:52;13.02;;;3.08;;
33076;SDS011;38790;51.964;5.924;2022-10-23T15:21:18;12.02;;;2.90;;
33076;SDS011;38790;51.964;5.924;2022-10-23T15:23:44;7.38;;;2.80;;
33076;SDS011;38790;51.964;5.924;2022-10-23T15:26:12;15.63;;;3.00;;
33076;SDS011;38790;51.964;5.924;2022-10-23T15:28:54;11.73;;;3.13;;
33076;SDS011;38790;51.964;5.924;2022-10-23T15:33:57;8.50;;;3.10;;
33076;SDS011;38790;51.964;5.924;2022-10-23T15:36:24;11.75;;;3.38;;
33076;SDS011;38790;51.964;5.924;2022-10-23T15:38:51;8.38;;;3.03;;
33076;SDS011;38790;51.964;5.924;2022-10-23T15:41:20;8.23;;;2.40;;
33076;SDS011;38790;51.964;5.924;2022-10-23T15:43:55;5.72;;;3.08;;
33076;SDS011;38790;51.964;5.924;2022-10-23T15:46:22;8.40;;;2.85;;
33076;SDS011;38790;51.964;5.924;2022-10-23T15:48:48;8.40;;;3.08;;
33076;SDS011;38790;51.964;5.924;2022-10-23T15:51:14;10.93;;;2.65;;
33076;SDS011;38790;51.964;5.924;2022-10-23T15:53:40;9.50;;;2.53;;
33076;SDS011;38790;51.964;5.924;2022-10-23T15:56:06;8.30;;;3.20;;
33076;SDS011;38790;51.964;5.924;2022-10-23T15:58:32;12.02;;;3.10;;
33076;SDS011;38790;51.964;5.924;2022-10-23T16:01:02;19.95;;;3.58;;
33076;SDS011;38790;51.964;5.924;2022-10-23T16:03:34;5.07;;;3.47;;
33076;SDS011;38790;51.964;5.924;2022-10-23T16:06:02;10.50;;;3.08;;
33076;SDS011;38790;51.964;5.924;2022-10-23T16:08:33;12.80;;;3.28;;
33076;SDS011;38790;51.964;5.924;2022-10-23T16:10:59;16.92;;;3.15;;
33076;SDS011;38790;51.964;5.924;2022-10-23T16:13:25;10.15;;;2.97;;
33076;SDS011;38790;51.964;5.924;2022-10-23T16:15:52;6.00;;;3.08;;
33076;SDS011;38790;51.964;5.924;2022-10-23T16:18:21;12.25;;;3.80;;
33076;SDS011;38790;51.964;5.924;2022-10-23T16:20:47;7.15;;;3.90;;
33076;SDS011;38790;51.964;5.924;2022-10-23T16:23:19;8.95;;;3.90;;
33076;SDS011;38790;51.964;5.924;2022-10-23T16:25:46;7.65;;;3.67;;
33076;SDS011;38790;51.964;5.924;2022-10-23T16:28:12;7.43;;;3.55;;
33076;SDS011;38790;51.964;5.924;2022-10-23T16:30:41;11.43;;;3.72;;
33076;SDS011;38790;51.964;5.924;2022-10-23T16:33:08;10.02;;;3.70;;
33076;SDS011;38790;51.964;5.924;2022-10-23T16:35:34;11.80;;;3.30;;
33076;SDS011;38790;51.964;5.924;2022-10-23T16:38:01;13.57;;;3.42;;
33076;SDS011;38790;51.964;5.924;2022-10-23T16:40:27;15.50;;;5.65;;
33076;SDS011;38790;51.964;5.924;2022-10-23T16:42:53;9.88;;;4.05;;
33076;SDS011;38790;51.964;5.924;2022-10-23T16:45:22;11.40;;;3.55;;
33076;SDS011;38790;51.964;5.924;2022-10-23T16:47:48;12.00;;;3.67;;
33076;SDS011;38790;51.964;5.924;2022-10-23T16:50:14;20.40;;;3.95;;
33076;SDS011;38790;51.964;5.924;2022-10-23T16:52:41;7.32;;;4.18;;
33076;SDS011;38790;51.964;5.924;2022-10-23T16:55:07;11.02;;;4.32;;
33076;SDS011;38790;51.964;5.924;2022-10-23T16:57:34;10.32;;;4.05;;
33076;SDS011;38790;51.964;5.924;2022-10-23T17:00:00;9.18;;;3.58;;
33076;SDS011;38790;51.964;5.924;2022-10-23T17:02:27;10.95;;;3.38;;